< < Back
Terminal Aerodrome Forecast


Current Version              Previous Versions:   1  2  3  4  5  6  7  8  9  

Terminal Aerodrome Forecast

652
FTUS44 KBMX 021100
TAFANB
TAF
KANB 021136Z 0212/0312 00000KT P6SM SKC
     FM021500 24005KT P6SM SCT050 SCT150
     FM030000 00000KT P6SM SCT150=

Latest METAR

962
SAUS70 KWBC 021700 RRE
MTRANB
METAR KANB 021653Z AUTO VRB04KT 10SM FEW040 31/21 A3010 RMK AO2 LTG DSNT
E AND SE SLP181 T03110211


USA.gov is the U.S. government's official web portal to all federal, state and local government web resources and services.